sensor_id;sensor_type;location;lat;lon;timestamp;temperature;humidity
13322;DHT22;6730;46.248;6.930;2022-09-09T00:02:21;16.70;99.90
13322;DHT22;6730;46.248;6.930;2022-09-09T00:05:17;16.70;99.90
13322;DHT22;6730;46.248;6.930;2022-09-09T00:07:51;16.80;99.90
13322;DHT22;6730;46.248;6.930;2022-09-09T00:15:59;16.70;99.90
13322;DHT22;6730;46.248;6.930;2022-09-09T00:18:54;16.70;99.90
13322;DHT22;6730;46.248;6.930;2022-09-09T00:21:35;16.90;99.90
13322;DHT22;6730;46.248;6.930;2022-09-09T00:24:17;17.20;99.90
13322;DHT22;6730;46.248;6.930;2022-09-09T00:26:51;17.10;99.90
13322;DHT22;6730;46.248;6.930;2022-09-09T00:31:57;17.20;99.90
13322;DHT22;6730;46.248;6.930;2022-09-09T00:34:29;17.20;99.90
13322;DHT22;6730;46.248;6.930;2022-09-09T00:36:56;17.50;99.90
13322;DHT22;6730;46.248;6.930;2022-09-09T00:39:27;17.60;99.90
13322;DHT22;6730;46.248;6.930;2022-09-09T00:42:05;17.40;99.90
13322;DHT22;6730;46.248;6.930;2022-09-09T00:44:38;17.20;99.90
13322;DHT22;6730;46.248;6.930;2022-09-09T00:54:51;16.70;99.90
13322;DHT22;6730;46.248;6.930;2022-09-09T00:57:29;16.70;99.90
13322;DHT22;6730;46.248;6.930;2022-09-09T01:05:44;16.60;99.90
13322;DHT22;6730;46.248;6.930;2022-09-09T01:10:53;16.60;99.90
13322;DHT22;6730;46.248;6.930;2022-09-09T01:13:34;16.60;99.90
13322;DHT22;6730;46.248;6.930;2022-09-09T01:16:04;16.70;99.90
13322;DHT22;6730;46.248;6.930;2022-09-09T01:18:37;16.60;99.90
13322;DHT22;6730;46.248;6.930;2022-09-09T01:21:31;16.30;99.90
13322;DHT22;6730;46.248;6.930;2022-09-09T01:26:49;16.40;99.90
13322;DHT22;6730;46.248;6.930;2022-09-09T01:29:18;16.30;99.90
13322;DHT22;6730;46.248;6.930;2022-09-09T01:31:58;16.30;99.90
13322;DHT22;6730;46.248;6.930;2022-09-09T01:34:36;16.30;99.90
13322;DHT22;6730;46.248;6.930;2022-09-09T01:37:06;16.30;99.90
13322;DHT22;6730;46.248;6.930;2022-09-09T01:39:37;16.40;99.90
13322;DHT22;6730;46.248;6.930;2022-09-09T01:42:06;16.40;99.90
13322;DHT22;6730;46.248;6.930;2022-09-09T01:44:32;16.40;99.90
13322;DHT22;6730;46.248;6.930;2022-09-09T01:46:58;16.60;99.90
13322;DHT22;6730;46.248;6.930;2022-09-09T01:49:24;16.60;99.90
13322;DHT22;6730;46.248;6.930;2022-09-09T01:51:51;16.70;99.90
13322;DHT22;6730;46.248;6.930;2022-09-09T01:54:19;16.60;99.90
13322;DHT22;6730;46.248;6.930;2022-09-09T02:00:15;16.40;99.90
13322;DHT22;6730;46.248;6.930;2022-09-09T02:08:20;16.80;99.90
13322;DHT22;6730;46.248;6.930;2022-09-09T02:13:28;16.50;99.90
13322;DHT22;6730;46.248;6.930;2022-09-09T02:16:14;16.50;99.90
13322;DHT22;6730;46.248;6.930;2022-09-09T02:21:10;16.50;99.90
13322;DHT22;6730;46.248;6.930;2022-09-09T02:23:38;16.60;99.90
13322;DHT22;6730;46.248;6.930;2022-09-09T02:26:05;16.80;99.90
13322;DHT22;6730;46.248;6.930;2022-09-09T02:28:34;16.90;99.90
13322;DHT22;6730;46.248;6.930;2022-09-09T02:31:02;17.20;99.90
13322;DHT22;6730;46.248;6.930;2022-09-09T02:33:33;17.30;99.90
13322;DHT22;6730;46.248;6.930;2022-09-09T02:36:01;17.50;99.90
13322;DHT22;6730;46.248;6.930;2022-09-09T02:38:32;17.00;99.90
13322;DHT22;6730;46.248;6.930;2022-09-09T02:40:59;16.80;99.90
13322;DHT22;6730;46.248;6.930;2022-09-09T02:43:25;16.80;99.90
13322;DHT22;6730;46.248;6.930;2022-09-09T02:48:36;16.50;99.90
13322;DHT22;6730;46.248;6.930;2022-09-09T02:51:24;16.50;99.90
13322;DHT22;6730;46.248;6.930;2022-09-09T02:56:29;16.50;99.90
13322;DHT22;6730;46.248;6.930;2022-09-09T02:58:56;16.40;99.90
13322;DHT22;6730;46.248;6.930;2022-09-09T03:01:22;15.80;99.90
13322;DHT22;6730;46.248;6.930;2022-09-09T03:03:47;15.50;99.90
13322;DHT22;6730;46.248;6.930;2022-09-09T03:06:13;15.70;99.90
13322;DHT22;6730;46.248;6.930;2022-09-09T03:08:39;15.80;99.90
13322;DHT22;6730;46.248;6.930;2022-09-09T03:11:05;15.80;99.90
13322;DHT22;6730;46.248;6.930;2022-09-09T03:13:31;15.50;99.90
13322;DHT22;6730;46.248;6.930;2022-09-09T03:15:56;15.70;99.90
13322;DHT22;6730;46.248;6.930;2022-09-09T03:18:22;15.80;99.90
13322;DHT22;6730;46.248;6.930;2022-09-09T03:20:48;15.90;99.90
13322;DHT22;6730;46.248;6.930;2022-09-09T03:23:14;16.00;99.90
13322;DHT22;6730;46.248;6.930;2022-09-09T03:25:45;16.00;99.90
13322;DHT22;6730;46.248;6.930;2022-09-09T03:28:11;15.90;99.90
13322;DHT22;6730;46.248;6.930;2022-09-09T03:30:37;15.50;99.90
13322;DHT22;6730;46.248;6.930;2022-09-09T03:33:03;15.50;99.90
13322;DHT22;6730;46.248;6.930;2022-09-09T03:35:29;15.60;99.90
13322;DHT22;6730;46.248;6.930;2022-09-09T03:37:55;15.60;99.90
13322;DHT22;6730;46.248;6.930;2022-09-09T03:40:21;15.30;99.90
13322;DHT22;6730;46.248;6.930;2022-09-09T03:42:47;15.20;99.90
13322;DHT22;6730;46.248;6.930;2022-09-09T03:45:14;15.10;99.90
13322;DHT22;6730;46.248;6.930;2022-09-09T03:47:39;15.10;99.90
13322;DHT22;6730;46.248;6.930;2022-09-09T03:50:07;15.30;99.90
13322;DHT22;6730;46.248;6.930;2022-09-09T03:52:39;15.50;99.90
13322;DHT22;6730;46.248;6.930;2022-09-09T03:55:06;15.50;99.90
13322;DHT22;6730;46.248;6.930;2022-09-09T03:57:32;15.40;99.90
13322;DHT22;6730;46.248;6.930;2022-09-09T04:00:04;15.40;99.90
13322;DHT22;6730;46.248;6.930;2022-09-09T04:02:30;15.30;99.90
13322;DHT22;6730;46.248;6.930;2022-09-09T04:04:56;15.10;99.90
13322;DHT22;6730;46.248;6.930;2022-09-09T04:07:21;15.30;99.90
13322;DHT22;6730;46.248;6.930;2022-09-09T04:09:47;15.50;99.90
13322;DHT22;6730;46.248;6.930;2022-09-09T04:12:13;15.70;99.90
13322;DHT22;6730;46.248;6.930;2022-09-09T04:14:39;15.80;99.90
13322;DHT22;6730;46.248;6.930;2022-09-09T04:17:05;15.60;99.90
13322;DHT22;6730;46.248;6.930;2022-09-09T04:19:32;15.50;99.90
13322;DHT22;6730;46.248;6.930;2022-09-09T04:21:58;15.50;99.90
13322;DHT22;6730;46.248;6.930;2022-09-09T04:24:24;15.60;99.90
13322;DHT22;6730;46.248;6.930;2022-09-09T04:26:50;15.60;99.90
13322;DHT22;6730;46.248;6.930;2022-09-09T04:29:15;15.60;99.90
13322;DHT22;6730;46.248;6.930;2022-09-09T04:31:41;15.40;99.90
13322;DHT22;6730;46.248;6.930;2022-09-09T04:34:08;15.20;99.90
13322;DHT22;6730;46.248;6.930;2022-09-09T04:36:35;15.00;99.90
13322;DHT22;6730;46.248;6.930;2022-09-09T04:39:01;14.80;99.90
13322;DHT22;6730;46.248;6.930;2022-09-09T04:41:27;14.70;99.90
13322;DHT22;6730;46.248;6.930;2022-09-09T04:43:53;14.70;99.90
13322;DHT22;6730;46.248;6.930;2022-09-09T04:46:22;14.90;99.90
13322;DHT22;6730;46.248;6.930;2022-09-09T04:48:49;15.10;99.90
13322;DHT22;6730;46.248;6.930;2022-09-09T04:51:15;15.20;99.90
13322;DHT22;6730;46.248;6.930;2022-09-09T04:53:40;15.30;99.90
13322;DHT22;6730;46.248;6.930;2022-09-09T04:56:09;15.40;99.90
13322;DHT22;6730;46.248;6.930;2022-09-09T04:58:38;15.40;99.90
13322;DHT22;6730;46.248;6.930;2022-09-09T05:01:05;15.30;99.90
13322;DHT22;6730;46.248;6.930;2022-09-09T05:03:31;15.40;99.90
13322;DHT22;6730;46.248;6.930;2022-09-09T05:06:23;15.40;99.90
13322;DHT22;6730;46.248;6.930;2022-09-09T05:08:49;15.00;99.90
13322;DHT22;6730;46.248;6.930;2022-09-09T05:11:22;14.60;99.90
13322;DHT22;6730;46.248;6.930;2022-09-09T05:13:50;14.40;99.90
13322;DHT22;6730;46.248;6.930;2022-09-09T05:16:16;14.40;99.90
13322;DHT22;6730;46.248;6.930;2022-09-09T05:18:43;14.40;99.90
13322;DHT22;6730;46.248;6.930;2022-09-09T05:21:09;14.60;99.90
13322;DHT22;6730;46.248;6.930;2022-09-09T05:23:35;14.60;99.90
13322;DHT22;6730;46.248;6.930;2022-09-09T05:26:01;14.60;99.90
13322;DHT22;6730;46.248;6.930;2022-09-09T05:28:28;14.70;99.90
13322;DHT22;6730;46.248;6.930;2022-09-09T05:30:58;14.70;99.90
13322;DHT22;6730;46.248;6.930;2022-09-09T05:33:30;14.70;99.90
13322;DHT22;6730;46.248;6.930;2022-09-09T05:36:00;14.60;99.90
13322;DHT22;6730;46.248;6.930;2022-09-09T05:38:28;14.70;99.90
13322;DHT22;6730;46.248;6.930;2022-09-09T05:40:54;15.00;99.90
13322;DHT22;6730;46.248;6.930;2022-09-09T05:43:20;15.30;99.90
13322;DHT22;6730;46.248;6.930;2022-09-09T05:45:47;15.30;99.90
13322;DHT22;6730;46.248;6.930;2022-09-09T05:48:16;15.30;99.90
13322;DHT22;6730;46.248;6.930;2022-09-09T05:50:42;15.20;99.90
13322;DHT22;6730;46.248;6.930;2022-09-09T05:53:09;15.40;99.90
13322;DHT22;6730;46.248;6.930;2022-09-09T05:55:36;15.60;99.90
13322;DHT22;6730;46.248;6.930;2022-09-09T05:58:02;15.50;99.90
13322;DHT22;6730;46.248;6.930;2022-09-09T06:00:28;15.30;99.90
13322;DHT22;6730;46.248;6.930;2022-09-09T06:02:54;15.10;99.90
13322;DHT22;6730;46.248;6.930;2022-09-09T06:05:20;15.20;99.90
13322;DHT22;6730;46.248;6.930;2022-09-09T06:07:52;15.00;99.90
13322;DHT22;6730;46.248;6.930;2022-09-09T06:10:18;15.10;99.90
13322;DHT22;6730;46.248;6.930;2022-09-09T06:12:44;15.20;99.90
13322;DHT22;6730;46.248;6.930;2022-09-09T06:15:10;15.20;99.90
13322;DHT22;6730;46.248;6.930;2022-09-09T06:17:35;15.50;99.90
13322;DHT22;6730;46.248;6.930;2022-09-09T06:20:02;16.00;99.90
13322;DHT22;6730;46.248;6.930;2022-09-09T06:22:28;16.50;99.90
13322;DHT22;6730;46.248;6.930;2022-09-09T06:24:53;16.50;99.90
13322;DHT22;6730;46.248;6.930;2022-09-09T06:27:19;16.60;99.90
13322;DHT22;6730;46.248;6.930;2022-09-09T06:29:45;16.80;99.90
13322;DHT22;6730;46.248;6.930;2022-09-09T06:32:10;17.10;99.90
13322;DHT22;6730;46.248;6.930;2022-09-09T06:34:36;17.40;99.90
13322;DHT22;6730;46.248;6.930;2022-09-09T06:37:02;17.90;99.90
13322;DHT22;6730;46.248;6.930;2022-09-09T06:39:27;18.50;99.90
13322;DHT22;6730;46.248;6.930;2022-09-09T06:41:53;18.80;99.90
13322;DHT22;6730;46.248;6.930;2022-09-09T06:44:19;18.80;99.90
13322;DHT22;6730;46.248;6.930;2022-09-09T06:46:45;19.30;99.90
13322;DHT22;6730;46.248;6.930;2022-09-09T06:49:13;19.40;99.90
13322;DHT22;6730;46.248;6.930;2022-09-09T06:51:39;19.60;99.90
13322;DHT22;6730;46.248;6.930;2022-09-09T06:54:08;19.60;99.90
13322;DHT22;6730;46.248;6.930;2022-09-09T06:56:36;19.80;99.90
13322;DHT22;6730;46.248;6.930;2022-09-09T06:59:04;20.00;99.90
13322;DHT22;6730;46.248;6.930;2022-09-09T07:01:35;20.00;99.90
13322;DHT22;6730;46.248;6.930;2022-09-09T07:04:01;19.80;99.90
13322;DHT22;6730;46.248;6.930;2022-09-09T07:06:31;20.20;99.90
13322;DHT22;6730;46.248;6.930;2022-09-09T07:08:59;19.30;99.90
13322;DHT22;6730;46.248;6.930;2022-09-09T07:11:30;19.70;99.90
13322;DHT22;6730;46.248;6.930;2022-09-09T07:13:57;19.40;99.90
13322;DHT22;6730;46.248;6.930;2022-09-09T07:16:24;18.80;99.90
13322;DHT22;6730;46.248;6.930;2022-09-09T07:18:50;19.20;99.90
13322;DHT22;6730;46.248;6.930;2022-09-09T07:21:16;19.90;99.90
13322;DHT22;6730;46.248;6.930;2022-09-09T07:23:43;20.40;99.90
13322;DHT22;6730;46.248;6.930;2022-09-09T07:26:14;20.80;99.90
13322;DHT22;6730;46.248;6.930;2022-09-09T07:28:41;21.10;99.90
13322;DHT22;6730;46.248;6.930;2022-09-09T07:31:10;21.10;99.90
13322;DHT22;6730;46.248;6.930;2022-09-09T07:33:39;20.60;99.90
13322;DHT22;6730;46.248;6.930;2022-09-09T07:38:37;21.50;99.90
13322;DHT22;6730;46.248;6.930;2022-09-09T07:41:08;21.80;99.90
13322;DHT22;6730;46.248;6.930;2022-09-09T07:43:38;22.00;99.90
13322;DHT22;6730;46.248;6.930;2022-09-09T07:46:05;22.00;99.90
13322;DHT22;6730;46.248;6.930;2022-09-09T07:48:31;21.80;99.90
13322;DHT22;6730;46.248;6.930;2022-09-09T07:51:08;22.00;99.90
13322;DHT22;6730;46.248;6.930;2022-09-09T07:53:36;21.90;99.90
13322;DHT22;6730;46.248;6.930;2022-09-09T07:56:04;22.50;99.90
13322;DHT22;6730;46.248;6.930;2022-09-09T07:58:29;22.60;99.90
13322;DHT22;6730;46.248;6.930;2022-09-09T08:00:55;23.10;99.90
13322;DHT22;6730;46.248;6.930;2022-09-09T08:03:21;22.30;99.90
13322;DHT22;6730;46.248;6.930;2022-09-09T08:05:47;22.20;99.90
13322;DHT22;6730;46.248;6.930;2022-09-09T08:08:13;21.90;99.90
13322;DHT22;6730;46.248;6.930;2022-09-09T08:10:39;22.00;99.90
13322;DHT22;6730;46.248;6.930;2022-09-09T08:13:04;22.30;99.90
13322;DHT22;6730;46.248;6.930;2022-09-09T08:15:31;21.90;99.90
13322;DHT22;6730;46.248;6.930;2022-09-09T08:17:57;21.90;99.90
13322;DHT22;6730;46.248;6.930;2022-09-09T08:20:23;22.30;99.90
13322;DHT22;6730;46.248;6.930;2022-09-09T08:22:49;22.70;99.90
13322;DHT22;6730;46.248;6.930;2022-09-09T08:25:15;22.10;99.90
13322;DHT22;6730;46.248;6.930;2022-09-09T08:27:41;22.10;99.90
13322;DHT22;6730;46.248;6.930;2022-09-09T08:30:07;22.10;99.90
13322;DHT22;6730;46.248;6.930;2022-09-09T08:32:33;20.80;99.90
13322;DHT22;6730;46.248;6.930;2022-09-09T08:35:00;19.90;99.90
13322;DHT22;6730;46.248;6.930;2022-09-09T08:37:26;19.70;99.90
13322;DHT22;6730;46.248;6.930;2022-09-09T08:39:51;20.40;99.90
13322;DHT22;6730;46.248;6.930;2022-09-09T08:42:29;20.00;99.90
13322;DHT22;6730;46.248;6.930;2022-09-09T08:45:31;19.80;99.90
13322;DHT22;6730;46.248;6.930;2022-09-09T08:48:21;19.70;99.90
13322;DHT22;6730;46.248;6.930;2022-09-09T08:50:49;20.00;99.90
13322;DHT22;6730;46.248;6.930;2022-09-09T08:53:28;20.20;99.90
13322;DHT22;6730;46.248;6.930;2022-09-09T08:56:00;20.30;99.90
13322;DHT22;6730;46.248;6.930;2022-09-09T08:58:38;20.70;99.90
13322;DHT22;6730;46.248;6.930;2022-09-09T09:11:46;22.90;99.90
13322;DHT22;6730;46.248;6.930;2022-09-09T09:14:18;22.40;99.90
13322;DHT22;6730;46.248;6.930;2022-09-09T09:19:14;21.60;99.90
13322;DHT22;6730;46.248;6.930;2022-09-09T09:21:45;21.20;99.90
13322;DHT22;6730;46.248;6.930;2022-09-09T09:26:43;20.50;99.90
13322;DHT22;6730;46.248;6.930;2022-09-09T09:29:17;20.10;99.90
13322;DHT22;6730;46.248;6.930;2022-09-09T09:31:54;20.30;99.90
13322;DHT22;6730;46.248;6.930;2022-09-09T09:34:20;20.40;99.90
13322;DHT22;6730;46.248;6.930;2022-09-09T09:36:53;20.90;99.90
13322;DHT22;6730;46.248;6.930;2022-09-09T09:39:33;21.40;99.90
13322;DHT22;6730;46.248;6.930;2022-09-09T09:42:11;21.30;99.90
13322;DHT22;6730;46.248;6.930;2022-09-09T09:44:40;21.20;99.90
13322;DHT22;6730;46.248;6.930;2022-09-09T09:49:58;20.90;99.90
13322;DHT22;6730;46.248;6.930;2022-09-09T09:52:33;20.90;99.90
13322;DHT22;6730;46.248;6.930;2022-09-09T09:55:04;21.00;99.90
13322;DHT22;6730;46.248;6.930;2022-09-09T09:57:33;21.30;99.90
13322;DHT22;6730;46.248;6.930;2022-09-09T10:00:16;21.60;99.90
13322;DHT22;6730;46.248;6.930;2022-09-09T10:02:44;21.20;99.90
13322;DHT22;6730;46.248;6.930;2022-09-09T10:05:18;20.80;99.90
13322;DHT22;6730;46.248;6.930;2022-09-09T10:07:45;21.10;99.90
13322;DHT22;6730;46.248;6.930;2022-09-09T10:15:31;21.20;99.90
13322;DHT22;6730;46.248;6.930;2022-09-09T10:21:02;21.10;99.90
13322;DHT22;6730;46.248;6.930;2022-09-09T10:32:29;21.00;99.90
13322;DHT22;6730;46.248;6.930;2022-09-09T10:35:09;21.50;99.90
13322;DHT22;6730;46.248;6.930;2022-09-09T10:43:16;21.80;99.90
13322;DHT22;6730;46.248;6.930;2022-09-09T10:45:52;21.80;99.90
13322;DHT22;6730;46.248;6.930;2022-09-09T10:51:39;21.50;99.90
13322;DHT22;6730;46.248;6.930;2022-09-09T10:54:28;21.20;99.90
13322;DHT22;6730;46.248;6.930;2022-09-09T10:57:13;21.20;99.90
13322;DHT22;6730;46.248;6.930;2022-09-09T10:59:48;21.00;99.90
13322;DHT22;6730;46.248;6.930;2022-09-09T11:02:27;21.00;99.90
13322;DHT22;6730;46.248;6.930;2022-09-09T11:05:09;21.20;99.90
13322;DHT22;6730;46.248;6.930;2022-09-09T11:10:14;21.80;99.90
13322;DHT22;6730;46.248;6.930;2022-09-09T11:12:43;21.60;99.90
13322;DHT22;6730;46.248;6.930;2022-09-09T11:15:21;21.10;99.90
13322;DHT22;6730;46.248;6.930;2022-09-09T11:18:01;21.10;99.90
13322;DHT22;6730;46.248;6.930;2022-09-09T11:20:27;21.30;99.90
13322;DHT22;6730;46.248;6.930;2022-09-09T11:22:59;21.30;99.90
13322;DHT22;6730;46.248;6.930;2022-09-09T11:25:38;21.50;99.90
13322;DHT22;6730;46.248;6.930;2022-09-09T11:42:23;20.90;99.90
13322;DHT22;6730;46.248;6.930;2022-09-09T11:44:50;20.50;99.90
13322;DHT22;6730;46.248;6.930;2022-09-09T11:47:25;20.30;99.90
13322;DHT22;6730;46.248;6.930;2022-09-09T11:50:40;20.30;99.90
13322;DHT22;6730;46.248;6.930;2022-09-09T11:52:43;20.40;99.90
13322;DHT22;6730;46.248;6.930;2022-09-09T11:55:24;20.30;99.90
13322;DHT22;6730;46.248;6.930;2022-09-09T11:58:04;20.70;99.90
13322;DHT22;6730;46.248;6.930;2022-09-09T12:03:36;20.40;99.90
13322;DHT22;6730;46.248;6.930;2022-09-09T12:08:45;20.80;99.90
13322;DHT22;6730;46.248;6.930;2022-09-09T12:11:12;20.90;99.90
13322;DHT22;6730;46.248;6.930;2022-09-09T12:13:56;20.70;99.90
13322;DHT22;6730;46.248;6.930;2022-09-09T12:16:33;20.70;99.90
13322;DHT22;6730;46.248;6.930;2022-09-09T12:19:20;20.50;99.90
13322;DHT22;6730;46.248;6.930;2022-09-09T12:27:33;20.50;99.90
13322;DHT22;6730;46.248;6.930;2022-09-09T12:30:14;20.60;99.90
13322;DHT22;6730;46.248;6.930;2022-09-09T12:32:41;20.90;99.90
13322;DHT22;6730;46.248;6.930;2022-09-09T12:35:19;20.70;99.90
13322;DHT22;6730;46.248;6.930;2022-09-09T12:37:52;20.50;99.90
13322;DHT22;6730;46.248;6.930;2022-09-09T12:40:30;20.40;99.90
13322;DHT22;6730;46.248;6.930;2022-09-09T12:42:58;20.00;99.90
13322;DHT22;6730;46.248;6.930;2022-09-09T12:45:28;19.90;99.90
13322;DHT22;6730;46.248;6.930;2022-09-09T12:48:01;19.90;99.90
13322;DHT22;6730;46.248;6.930;2022-09-09T12:50:52;20.10;99.90
13322;DHT22;6730;46.248;6.930;2022-09-09T12:53:35;20.40;99.90
13322;DHT22;6730;46.248;6.930;2022-09-09T12:56:05;20.20;99.90
13322;DHT22;6730;46.248;6.930;2022-09-09T12:58:36;20.20;99.90
13322;DHT22;6730;46.248;6.930;2022-09-09T13:01:04;20.30;99.90
13322;DHT22;6730;46.248;6.930;2022-09-09T13:03:31;20.40;99.90
13322;DHT22;6730;46.248;6.930;2022-09-09T13:06:12;20.40;99.90
13322;DHT22;6730;46.248;6.930;2022-09-09T13:08:39;20.30;99.90
13322;DHT22;6730;46.248;6.930;2022-09-09T13:11:22;20.40;99.90
13322;DHT22;6730;46.248;6.930;2022-09-09T13:13:55;20.70;99.30
13322;DHT22;6730;46.248;6.930;2022-09-09T13:16:22;20.70;99.20
13322;DHT22;6730;46.248;6.930;2022-09-09T13:18:49;20.80;99.90
13322;DHT22;6730;46.248;6.930;2022-09-09T13:21:15;20.90;98.00
13322;DHT22;6730;46.248;6.930;2022-09-09T13:23:41;21.00;98.30
13322;DHT22;6730;46.248;6.930;2022-09-09T13:28:49;21.00;96.80
13322;DHT22;6730;46.248;6.930;2022-09-09T13:31:36;21.00;97.70
13322;DHT22;6730;46.248;6.930;2022-09-09T13:34:14;20.90;97.40
13322;DHT22;6730;46.248;6.930;2022-09-09T13:36:55;20.70;98.30
13322;DHT22;6730;46.248;6.930;2022-09-09T13:39:23;20.60;98.80
13322;DHT22;6730;46.248;6.930;2022-09-09T13:41:48;20.60;98.40
13322;DHT22;6730;46.248;6.930;2022-09-09T13:44:22;20.70;97.40
13322;DHT22;6730;46.248;6.930;2022-09-09T13:47:15;20.80;98.30
13322;DHT22;6730;46.248;6.930;2022-09-09T13:49:42;20.90;97.00
13322;DHT22;6730;46.248;6.930;2022-09-09T13:52:18;20.80;97.70
13322;DHT22;6730;46.248;6.930;2022-09-09T13:54:51;20.80;98.40
13322;DHT22;6730;46.248;6.930;2022-09-09T13:57:22;20.60;98.90
13322;DHT22;6730;46.248;6.930;2022-09-09T13:59:49;20.40;99.10
13322;DHT22;6730;46.248;6.930;2022-09-09T14:02:15;20.20;99.10
13322;DHT22;6730;46.248;6.930;2022-09-09T14:04:44;20.20;99.70
13322;DHT22;6730;46.248;6.930;2022-09-09T14:07:15;20.10;99.90
13322;DHT22;6730;46.248;6.930;2022-09-09T14:09:42;20.10;99.90
13322;DHT22;6730;46.248;6.930;2022-09-09T14:12:11;20.10;99.90
13322;DHT22;6730;46.248;6.930;2022-09-09T14:14:37;20.10;99.90
13322;DHT22;6730;46.248;6.930;2022-09-09T14:17:03;20.10;99.90
13322;DHT22;6730;46.248;6.930;2022-09-09T14:19:30;20.10;99.90
13322;DHT22;6730;46.248;6.930;2022-09-09T14:21:59;20.10;99.90
13322;DHT22;6730;46.248;6.930;2022-09-09T14:24:26;20.20;99.90
13322;DHT22;6730;46.248;6.930;2022-09-09T14:26:53;20.30;99.90
13322;DHT22;6730;46.248;6.930;2022-09-09T14:29:19;20.10;99.90
13322;DHT22;6730;46.248;6.930;2022-09-09T14:31:45;20.00;99.90
13322;DHT22;6730;46.248;6.930;2022-09-09T14:34:11;20.10;99.90
13322;DHT22;6730;46.248;6.930;2022-09-09T14:36:37;20.00;99.90
13322;DHT22;6730;46.248;6.930;2022-09-09T14:39:04;20.00;99.90
13322;DHT22;6730;46.248;6.930;2022-09-09T14:41:30;20.00;99.90
13322;DHT22;6730;46.248;6.930;2022-09-09T14:43:56;19.90;99.90
13322;DHT22;6730;46.248;6.930;2022-09-09T14:46:22;19.90;99.90
13322;DHT22;6730;46.248;6.930;2022-09-09T14:48:48;19.90;99.90
13322;DHT22;6730;46.248;6.930;2022-09-09T14:51:18;19.90;99.90
13322;DHT22;6730;46.248;6.930;2022-09-09T14:53:45;20.10;99.90
13322;DHT22;6730;46.248;6.930;2022-09-09T14:56:13;20.30;99.90
13322;DHT22;6730;46.248;6.930;2022-09-09T14:58:39;20.30;99.90
13322;DHT22;6730;46.248;6.930;2022-09-09T15:01:07;20.20;99.90
13322;DHT22;6730;46.248;6.930;2022-09-09T15:03:35;20.30;99.90
13322;DHT22;6730;46.248;6.930;2022-09-09T15:06:07;20.30;99.90
13322;DHT22;6730;46.248;6.930;2022-09-09T15:08:37;20.20;99.90
13322;DHT22;6730;46.248;6.930;2022-09-09T15:11:05;20.30;99.90
13322;DHT22;6730;46.248;6.930;2022-09-09T15:13:33;20.20;99.90
13322;DHT22;6730;46.248;6.930;2022-09-09T15:18:32;20.20;99.90
13322;DHT22;6730;46.248;6.930;2022-09-09T15:21:07;20.10;99.90
13322;DHT22;6730;46.248;6.930;2022-09-09T15:23:33;20.20;99.90
13322;DHT22;6730;46.248;6.930;2022-09-09T15:25:59;20.10;99.90
13322;DHT22;6730;46.248;6.930;2022-09-09T15:28:25;20.00;99.90
13322;DHT22;6730;46.248;6.930;2022-09-09T15:30:51;19.80;99.90
13322;DHT22;6730;46.248;6.930;2022-09-09T15:33:18;19.90;99.90
13322;DHT22;6730;46.248;6.930;2022-09-09T15:35:44;19.90;99.90
13322;DHT22;6730;46.248;6.930;2022-09-09T15:38:10;20.00;99.90
13322;DHT22;6730;46.248;6.930;2022-09-09T15:40:36;19.90;99.90
13322;DHT22;6730;46.248;6.930;2022-09-09T15:43:01;19.90;99.90
13322;DHT22;6730;46.248;6.930;2022-09-09T15:45:28;19.80;99.90
13322;DHT22;6730;46.248;6.930;2022-09-09T15:47:59;19.70;99.90
13322;DHT22;6730;46.248;6.930;2022-09-09T15:50:25;19.60;99.90
13322;DHT22;6730;46.248;6.930;2022-09-09T15:52:51;19.60;99.90
13322;DHT22;6730;46.248;6.930;2022-09-09T15:55:17;19.50;99.90
13322;DHT22;6730;46.248;6.930;2022-09-09T15:57:43;19.50;99.90
13322;DHT22;6730;46.248;6.930;2022-09-09T16:00:09;19.50;99.90
13322;DHT22;6730;46.248;6.930;2022-09-09T16:02:37;19.50;99.90
13322;DHT22;6730;46.248;6.930;2022-09-09T16:05:03;19.60;99.90
13322;DHT22;6730;46.248;6.930;2022-09-09T16:07:30;19.60;99.60
13322;DHT22;6730;46.248;6.930;2022-09-09T16:09:55;19.60;99.60
13322;DHT22;6730;46.248;6.930;2022-09-09T16:12:21;19.60;99.50
13322;DHT22;6730;46.248;6.930;2022-09-09T16:14:49;19.60;99.60
13322;DHT22;6730;46.248;6.930;2022-09-09T16:17:15;19.70;99.70
13322;DHT22;6730;46.248;6.930;2022-09-09T16:19:41;19.60;99.90
13322;DHT22;6730;46.248;6.930;2022-09-09T16:22:06;19.70;99.90
13322;DHT22;6730;46.248;6.930;2022-09-09T16:24:32;19.60;99.50
13322;DHT22;6730;46.248;6.930;2022-09-09T16:26:58;19.60;99.50
13322;DHT22;6730;46.248;6.930;2022-09-09T16:29:24;19.50;99.10
13322;DHT22;6730;46.248;6.930;2022-09-09T16:31:53;19.20;97.30
13322;DHT22;6730;46.248;6.930;2022-09-09T16:34:19;19.20;98.00
13322;DHT22;6730;46.248;6.930;2022-09-09T16:36:47;19.40;98.20
13322;DHT22;6730;46.248;6.930;2022-09-09T16:39:16;19.50;98.00
13322;DHT22;6730;46.248;6.930;2022-09-09T16:41:43;19.50;97.80
13322;DHT22;6730;46.248;6.930;2022-09-09T16:44:10;19.30;97.90
13322;DHT22;6730;46.248;6.930;2022-09-09T16:46:41;19.20;97.90
13322;DHT22;6730;46.248;6.930;2022-09-09T16:49:12;19.10;97.30
13322;DHT22;6730;46.248;6.930;2022-09-09T16:51:40;19.10;98.30
13322;DHT22;6730;46.248;6.930;2022-09-09T16:54:08;19.10;99.00
13322;DHT22;6730;46.248;6.930;2022-09-09T16:56:37;18.90;97.70
13322;DHT22;6730;46.248;6.930;2022-09-09T16:59:08;18.80;97.60
13322;DHT22;6730;46.248;6.930;2022-09-09T17:01:36;18.70;98.00
13322;DHT22;6730;46.248;6.930;2022-09-09T17:04:08;18.60;98.40
13322;DHT22;6730;46.248;6.930;2022-09-09T17:06:35;18.60;98.60
13322;DHT22;6730;46.248;6.930;2022-09-09T17:09:04;18.50;98.90
13322;DHT22;6730;46.248;6.930;2022-09-09T17:11:31;18.40;99.60
13322;DHT22;6730;46.248;6.930;2022-09-09T17:13:57;18.50;99.20
13322;DHT22;6730;46.248;6.930;2022-09-09T17:16:28;18.60;99.50
13322;DHT22;6730;46.248;6.930;2022-09-09T17:18:54;18.60;99.50
13322;DHT22;6730;46.248;6.930;2022-09-09T17:21:23;18.50;98.70
13322;DHT22;6730;46.248;6.930;2022-09-09T17:23:51;18.50;98.70
13322;DHT22;6730;46.248;6.930;2022-09-09T17:26:19;18.40;98.80
13322;DHT22;6730;46.248;6.930;2022-09-09T17:28:47;18.30;98.90
13322;DHT22;6730;46.248;6.930;2022-09-09T17:31:15;18.30;99.20
13322;DHT22;6730;46.248;6.930;2022-09-09T17:33:43;18.20;99.00
13322;DHT22;6730;46.248;6.930;2022-09-09T17:36:12;18.20;99.10
13322;DHT22;6730;46.248;6.930;2022-09-09T17:38:39;18.30;99.00
13322;DHT22;6730;46.248;6.930;2022-09-09T17:41:07;18.20;99.30
13322;DHT22;6730;46.248;6.930;2022-09-09T17:43:34;18.20;99.40
13322;DHT22;6730;46.248;6.930;2022-09-09T17:46:21;18.20;99.70
13322;DHT22;6730;46.248;6.930;2022-09-09T17:48:49;18.10;99.40
13322;DHT22;6730;46.248;6.930;2022-09-09T17:51:18;18.30;99.40
13322;DHT22;6730;46.248;6.930;2022-09-09T17:53:47;18.20;99.50
13322;DHT22;6730;46.248;6.930;2022-09-09T17:56:18;18.10;99.30
13322;DHT22;6730;46.248;6.930;2022-09-09T17:58:45;18.20;99.60
13322;DHT22;6730;46.248;6.930;2022-09-09T18:01:14;18.20;99.70
13322;DHT22;6730;46.248;6.930;2022-09-09T18:03:41;18.10;99.90
13322;DHT22;6730;46.248;6.930;2022-09-09T18:06:14;18.20;99.70
13322;DHT22;6730;46.248;6.930;2022-09-09T18:08:41;18.10;99.60